createdAt,value
2022-08-28T04:02:31.703Z,11.88
2022-08-28T04:05:03.946Z,10.85
2022-08-28T04:07:36.263Z,7.80
2022-08-28T04:10:08.835Z,8.50
2022-08-28T04:15:39.622Z,6.20
2022-08-28T04:18:13.248Z,11.70
2022-08-28T04:20:46.597Z,10.98
2022-08-28T04:23:18.743Z,11.88
2022-08-28T04:25:50.799Z,15.57
2022-08-28T04:28:22.940Z,7.57
2022-08-28T04:30:55.043Z,9.38
2022-08-28T04:33:28.567Z,15.57
2022-08-28T04:36:02.253Z,11.90
2022-08-28T04:38:34.393Z,9.60
2022-08-28T04:41:06.672Z,6.97
2022-08-28T04:43:38.696Z,9.60
2022-08-28T04:46:11.488Z,10.93
2022-08-28T04:48:45.663Z,11.85
2022-08-28T04:51:17.679Z,13.82
2022-08-28T04:53:49.727Z,6.18
2022-08-28T04:56:21.776Z,9.95
2022-08-28T04:58:53.848Z,14.32
2022-08-28T05:01:25.930Z,12.50
2022-08-28T05:04:00.177Z,9.82
2022-08-28T05:06:32.574Z,12.65
2022-08-28T05:09:05.014Z,12.57
2022-08-28T05:11:37.025Z,11.68
2022-08-28T05:14:11.572Z,12.68
2022-08-28T05:16:48.350Z,11.30
2022-08-28T05:19:21.791Z,14.52
2022-08-28T05:21:54.089Z,11.68
2022-08-28T05:24:26.113Z,15.07
2022-08-28T05:26:58.131Z,8.63
2022-08-28T05:29:30.172Z,15.77
2022-08-28T05:32:02.281Z,12.48
2022-08-28T05:34:35.745Z,12.85
2022-08-28T05:37:07.767Z,14.13
2022-08-28T05:39:39.808Z,11.90
2022-08-28T05:42:11.847Z,15.82
2022-08-28T05:44:43.887Z,20.02
2022-08-28T05:47:15.913Z,14.15
2022-08-28T05:49:55.151Z,14.38
2022-08-28T05:52:27.168Z,9.93
2022-08-28T05:54:59.235Z,9.88
2022-08-28T05:57:31.295Z,11.23
2022-08-28T06:00:03.773Z,10.63
2022-08-28T06:02:35.813Z,14.98
2022-08-28T06:05:09.667Z,14.33
2022-08-28T06:07:45.196Z,12.20
2022-08-28T06:10:17.284Z,17.02
2022-08-28T06:12:50.454Z,13.63
2022-08-28T06:15:22.477Z,12.70
2022-08-28T06:17:54.514Z,13.90
2022-08-28T06:20:27.868Z,12.75
2022-08-28T06:22:59.903Z,12.38
2022-08-28T06:25:31.938Z,9.98
2022-08-28T06:28:04.205Z,12.90
2022-08-28T06:30:36.247Z,14.02
2022-08-28T06:33:12.203Z,16.80
2022-08-28T06:35:45.984Z,13.02
2022-08-28T06:38:18.148Z,17.65
2022-08-28T06:40:50.874Z,11.93
2022-08-28T06:43:23.519Z,13.65
2022-08-28T06:45:55.939Z,10.63
2022-08-28T06:48:28.431Z,16.13
2022-08-28T06:51:01.785Z,11.60
2022-08-28T06:53:33.959Z,15.40
2022-08-28T06:56:06.665Z,20.27
2022-08-28T06:58:39.248Z,12.20
2022-08-28T07:01:12.213Z,13.00
2022-08-28T07:03:46.457Z,15.40
2022-08-28T07:06:19.957Z,10.13
2022-08-28T07:08:52.108Z,9.27
2022-08-28T07:11:26.107Z,13.80
2022-08-28T07:13:58.542Z,11.23
2022-08-28T07:16:31.134Z,13.63
2022-08-28T07:19:03.309Z,11.00
2022-08-28T07:21:39.037Z,10.50
2022-08-28T07:24:12.171Z,18.13
2022-08-28T07:26:44.443Z,10.18
2022-08-28T07:29:16.511Z,17.05
2022-08-28T07:31:49.025Z,12.80
2022-08-28T07:34:21.567Z,14.85
2022-08-28T07:37:00.202Z,12.35
2022-08-28T07:39:32.340Z,10.75
2022-08-28T07:42:04.482Z,10.48
2022-08-28T07:44:36.561Z,11.88
2022-08-28T07:47:08.759Z,11.95
2022-08-28T07:49:41.171Z,11.38
2022-08-28T07:52:14.663Z,12.70
2022-08-28T07:54:46.724Z,10.13
2022-08-28T07:57:18.786Z,10.80
2022-08-28T07:59:51.327Z,14.18
2022-08-28T08:02:23.395Z,12.15
2022-08-28T08:04:55.537Z,11.15
2022-08-28T08:07:29.005Z,8.10
2022-08-28T08:10:01.101Z,13.25
2022-08-28T08:12:33.218Z,11.57
2022-08-28T08:15:07.178Z,10.60
2022-08-28T08:17:39.276Z,12.23
2022-08-28T08:20:11.645Z,10.23
2022-08-28T08:22:45.135Z,13.88
2022-08-28T08:25:17.243Z,10.50
2022-08-28T08:27:50.745Z,10.02
2022-08-28T08:30:22.825Z,9.80
2022-08-28T08:32:54.957Z,11.60
2022-08-28T08:35:30.044Z,11.93
2022-08-28T08:38:03.494Z,9.32
2022-08-28T08:40:35.664Z,8.77
2022-08-28T08:43:07.849Z,13.68
2022-08-28T08:45:39.914Z,8.70
2022-08-28T08:48:12.498Z,11.07
2022-08-28T08:50:44.620Z,12.05
2022-08-28T08:53:22.751Z,7.65
2022-08-28T08:55:55.075Z,11.48
2022-08-28T08:58:28.514Z,12.63
2022-08-28T09:01:01.586Z,11.43
2022-08-28T09:03:44.060Z,8.85
2022-08-28T09:06:19.279Z,17.70
2022-08-28T09:08:53.418Z,8.93
2022-08-28T09:11:29.769Z,10.50
2022-08-28T09:14:02.669Z,14.65
2022-08-28T09:16:36.212Z,10.57
2022-08-28T09:19:08.307Z,8.82
2022-08-28T09:21:41.637Z,11.05
2022-08-28T09:24:18.707Z,9.98
2022-08-28T09:26:54.747Z,6.45
2022-08-28T09:29:28.056Z,10.68
2022-08-28T09:32:00.569Z,9.68
2022-08-28T09:34:38.148Z,8.60
2022-08-28T09:37:13.972Z,11.05
2022-08-28T09:39:48.965Z,7.93
2022-08-28T09:42:22.332Z,7.65
2022-08-28T09:44:59.715Z,11.65
2022-08-28T09:47:49.633Z,9.65
2022-08-28T09:50:29.305Z,10.80
2022-08-28T09:53:14.210Z,10.23
2022-08-28T09:55:50.962Z,6.82
2022-08-28T09:58:26.990Z,8.07
2022-08-28T10:01:01.171Z,8.48
2022-08-28T10:03:34.201Z,8.77
2022-08-28T10:06:08.910Z,7.20
2022-08-28T10:08:48.423Z,11.60
2022-08-28T10:11:23.370Z,14.00
2022-08-28T10:13:57.776Z,7.45
2022-08-28T10:16:31.202Z,9.65
2022-08-28T10:19:04.133Z,7.38
2022-08-28T10:21:37.403Z,9.82
2022-08-28T10:24:24.758Z,11.80
2022-08-28T10:27:03.770Z,7.60
2022-08-28T10:29:39.285Z,12.65
2022-08-28T10:32:15.643Z,14.18
2022-08-28T10:34:50.531Z,6.82
2022-08-28T10:37:24.581Z,6.95
2022-08-28T10:39:57.118Z,6.70
2022-08-28T10:42:35.901Z,14.70
2022-08-28T10:45:10.091Z,7.70
2022-08-28T10:47:43.467Z,6.28
2022-08-28T10:50:16.425Z,10.77
2022-08-28T10:52:49.136Z,6.95
2022-08-28T10:55:22.751Z,6.10
2022-08-28T10:57:57.201Z,7.43
2022-08-28T11:00:29.265Z,9.80
2022-08-28T11:03:01.744Z,11.02
2022-08-28T11:05:35.179Z,6.85
2022-08-28T11:08:08.106Z,5.68
2022-08-28T11:10:49.782Z,6.30
2022-08-28T11:13:54.989Z,8.70
2022-08-28T11:16:37.593Z,5.57
2022-08-28T11:19:18.862Z,6.93
2022-08-28T11:21:51.495Z,6.30
2022-08-28T11:24:32.543Z,7.22
2022-08-28T11:27:07.358Z,6.47
2022-08-28T11:30:03.243Z,8.52
2022-08-28T11:32:46.889Z,5.45
2022-08-28T11:35:36.105Z,6.97
2022-08-28T11:38:08.332Z,6.15
2022-08-28T11:40:50.735Z,8.82
2022-08-28T11:43:36.115Z,4.78
2022-08-28T11:46:12.351Z,5.07
2022-08-28T11:48:47.584Z,6.22
2022-08-28T11:51:29.993Z,7.40
2022-08-28T11:54:03.963Z,9.05
2022-08-28T11:56:45.249Z,8.48
2022-08-28T11:59:35.244Z,7.25
2022-08-28T12:02:26.300Z,7.80
2022-08-28T12:04:59.658Z,7.05
2022-08-28T12:07:33.738Z,8.23
2022-08-28T12:10:13.585Z,6.35
2022-08-28T12:12:52.190Z,8.98
2022-08-28T12:15:40.575Z,6.78
2022-08-28T12:18:16.514Z,4.55
2022-08-28T12:20:59.342Z,12.52
2022-08-28T12:23:41.459Z,8.88
2022-08-28T12:26:19.580Z,9.15
2022-08-28T12:28:52.555Z,7.45
2022-08-28T12:31:27.771Z,6.07
2022-08-28T12:34:01.447Z,7.13
2022-08-28T12:36:34.818Z,5.05
2022-08-28T12:39:06.832Z,8.48
2022-08-28T12:41:38.862Z,8.00
2022-08-28T12:44:10.870Z,5.97
2022-08-28T12:46:43.198Z,6.60
2022-08-28T12:49:35.858Z,4.20
2022-08-28T12:52:16.653Z,6.32
2022-08-28T12:54:49.584Z,4.30
2022-08-28T12:57:22.258Z,6.43
2022-08-28T12:59:54.807Z,5.82
2022-08-28T13:02:27.386Z,4.32
2022-08-28T13:05:00.241Z,8.57
2022-08-28T13:07:34.793Z,5.95
2022-08-28T13:10:07.863Z,6.15
2022-08-28T13:12:54.900Z,5.25
2022-08-28T13:15:44.281Z,10.27
2022-08-28T13:18:38.995Z,6.20
2022-08-28T13:21:33.795Z,4.18
2022-08-28T13:24:24.756Z,7.60
2022-08-28T13:27:02.207Z,8.77
2022-08-28T13:29:34.285Z,6.40
2022-08-28T13:32:07.071Z,7.35
2022-08-28T13:34:46.505Z,7.80
2022-08-28T13:37:35.207Z,6.07
2022-08-28T13:40:15.963Z,4.15
2022-08-28T13:42:59.031Z,4.35
2022-08-28T13:45:36.323Z,6.68
2022-08-28T13:48:15.784Z,7.75
2022-08-28T13:50:48.175Z,4.45
2022-08-28T13:53:20.769Z,3.88
2022-08-28T13:55:52.824Z,8.60
2022-08-28T13:58:26.271Z,5.97
2022-08-28T14:00:58.327Z,5.45
2022-08-28T14:03:30.389Z,4.55
2022-08-28T14:06:02.641Z,8.52
2022-08-28T14:08:34.789Z,3.53
2022-08-28T14:11:06.994Z,6.10
2022-08-28T14:13:40.351Z,5.38
2022-08-28T14:16:18.790Z,5.65
2022-08-28T14:18:50.888Z,5.70
2022-08-28T14:21:22.917Z,5.72
2022-08-28T14:23:54.963Z,7.03
2022-08-28T14:26:27.002Z,11.50
2022-08-28T14:29:00.346Z,6.43
2022-08-28T14:31:32.432Z,6.55
2022-08-28T14:34:04.620Z,4.85
2022-08-28T14:36:36.672Z,8.15
2022-08-28T14:39:09.140Z,7.70
2022-08-28T14:41:42.315Z,5.78
2022-08-28T14:44:15.798Z,9.32
2022-08-28T14:46:47.976Z,6.55
2022-08-28T14:49:20.367Z,4.85
2022-08-28T14:51:52.413Z,7.38
2022-08-28T14:54:24.799Z,6.50
2022-08-28T14:56:56.839Z,4.85
2022-08-28T14:59:30.590Z,9.02
2022-08-28T15:02:02.617Z,6.43
2022-08-28T15:04:34.695Z,5.18
2022-08-28T15:07:07.662Z,3.45
2022-08-28T15:09:40.235Z,7.53
2022-08-28T15:12:12.275Z,5.72
2022-08-28T15:14:55.128Z,5.90
2022-08-28T15:17:33.424Z,5.72
2022-08-28T15:20:07.036Z,6.07
2022-08-28T15:22:39.076Z,6.18
2022-08-28T15:25:11.099Z,4.93
2022-08-28T15:27:43.123Z,4.78
2022-08-28T15:30:16.486Z,5.68
2022-08-28T15:32:48.543Z,4.72
2022-08-28T15:35:20.599Z,5.97
2022-08-28T15:37:52.638Z,4.00
2022-08-28T15:40:24.787Z,4.40
2022-08-28T15:42:56.947Z,5.47
2022-08-28T15:45:30.383Z,8.75
2022-08-28T15:48:02.567Z,6.13
2022-08-28T15:50:34.603Z,7.57
2022-08-28T15:53:06.822Z,6.63
2022-08-28T15:55:38.936Z,4.50
2022-08-28T15:58:13.868Z,6.22
2022-08-28T16:00:47.852Z,5.13
2022-08-28T16:03:19.898Z,7.85
2022-08-28T16:05:51.909Z,7.30
2022-08-28T16:08:23.952Z,7.47
2022-08-28T16:10:55.971Z,5.00
2022-08-28T16:13:28.009Z,6.35
2022-08-28T16:16:01.455Z,6.05
2022-08-28T16:18:33.499Z,6.00
2022-08-28T16:21:05.730Z,4.53
2022-08-28T16:23:37.759Z,4.75
2022-08-28T16:26:10.944Z,5.72
2022-08-28T16:28:43.156Z,5.03
2022-08-28T16:31:18.879Z,3.35
2022-08-28T16:33:53.381Z,7.07
2022-08-28T16:36:25.066Z,5.40
2022-08-28T16:39:00.504Z,4.93
2022-08-28T16:41:35.771Z,9.88
2022-08-28T16:44:07.434Z,6.18
2022-08-28T16:46:40.506Z,3.92
2022-08-28T16:49:12.178Z,3.28
2022-08-28T16:51:43.874Z,7.13
2022-08-28T16:54:15.728Z,5.30
2022-08-28T16:56:47.530Z,5.68
2022-08-28T16:59:19.219Z,7.88
2022-08-28T17:01:53.810Z,6.22
2022-08-28T17:04:26.144Z,8.52
2022-08-28T17:06:57.816Z,5.50
2022-08-28T17:09:29.557Z,6.82
2022-08-28T17:12:01.275Z,7.07
2022-08-28T17:14:35.630Z,4.70
2022-08-28T17:17:08.645Z,4.97
2022-08-28T17:19:40.300Z,5.18
2022-08-28T17:22:11.959Z,4.65
2022-08-28T17:24:43.636Z,8.48
2022-08-28T17:27:22.567Z,6.20
2022-08-28T17:29:55.031Z,3.95
2022-08-28T17:32:28.051Z,3.78
2022-08-28T17:34:59.845Z,5.35
2022-08-28T17:37:31.537Z,5.43
2022-08-28T17:40:03.762Z,5.03
2022-08-28T17:42:35.512Z,5.47
2022-08-28T17:45:08.305Z,2.70
2022-08-28T17:47:41.387Z,5.97
2022-08-28T17:50:13.047Z,4.78
2022-08-28T17:52:44.713Z,9.48
2022-08-28T17:55:16.439Z,7.90
2022-08-28T17:57:48.139Z,5.70
2022-08-28T18:00:19.912Z,4.70
2022-08-28T18:02:52.920Z,3.85
2022-08-28T18:05:24.826Z,6.45
2022-08-28T18:07:56.499Z,4.75
2022-08-28T18:10:28.199Z,5.93
2022-08-28T18:12:59.874Z,5.13
2022-08-28T18:15:31.631Z,4.35
2022-08-28T18:18:05.500Z,4.65
2022-08-28T18:20:37.176Z,6.32
2022-08-28T18:23:09.031Z,4.10
2022-08-28T18:25:40.691Z,4.40
2022-08-28T18:28:15.088Z,6.25
2022-08-28T18:30:47.226Z,7.07
2022-08-28T18:33:22.511Z,4.45
2022-08-28T18:35:54.150Z,6.82
2022-08-28T18:38:26.029Z,5.05
2022-08-28T18:40:57.686Z,8.38
2022-08-28T18:43:29.382Z,4.50
2022-08-28T18:46:01.350Z,5.18
2022-08-28T18:48:34.363Z,9.48
2022-08-28T18:51:06.446Z,6.05
2022-08-28T18:53:38.865Z,6.80
2022-08-28T18:56:13.950Z,4.53
2022-08-28T18:58:45.868Z,6.60
2022-08-28T19:01:17.669Z,7.30
2022-08-28T19:03:50.780Z,7.50
2022-08-28T19:06:22.455Z,6.68
2022-08-28T19:08:54.135Z,3.03
2022-08-28T19:11:25.795Z,2.25
2022-08-28T19:13:57.516Z,4.50
2022-08-28T19:16:31.386Z,4.22
2022-08-28T19:19:04.580Z,6.53
2022-08-28T19:21:36.759Z,6.85
2022-08-28T19:24:08.418Z,5.38
2022-08-28T19:26:40.100Z,8.80
2022-08-28T19:29:11.767Z,4.25
2022-08-28T19:31:43.574Z,4.22
2022-08-28T19:34:16.553Z,4.90
2022-08-28T19:36:48.229Z,5.22
2022-08-28T19:39:19.888Z,4.55
2022-08-28T19:41:51.716Z,3.20
2022-08-28T19:44:23.403Z,8.00
2022-08-28T19:46:55.091Z,5.97
2022-08-28T19:49:28.133Z,8.45
2022-08-28T19:51:59.826Z,7.10
2022-08-28T19:54:31.498Z,10.82
2022-08-28T19:57:03.167Z,6.13
2022-08-28T19:59:34.950Z,4.32
2022-08-28T20:02:06.648Z,8.90
2022-08-28T20:04:39.658Z,5.28
2022-08-28T20:07:11.355Z,5.35
2022-08-28T20:09:42.992Z,3.88
2022-08-28T20:12:14.664Z,5.18
2022-08-28T20:14:46.562Z,7.07
2022-08-28T20:17:18.261Z,5.13
2022-08-28T20:19:51.242Z,8.43
2022-08-28T20:22:22.894Z,2.92
2022-08-28T20:24:54.575Z,6.82
2022-08-28T20:27:26.245Z,3.90
2022-08-28T20:29:57.916Z,3.65
2022-08-28T20:32:29.593Z,5.55
2022-08-28T20:35:02.723Z,3.33
2022-08-28T20:37:34.443Z,9.68
2022-08-28T20:40:17.399Z,4.05
2022-08-28T20:42:49.153Z,4.60
2022-08-28T20:45:20.966Z,7.75
2022-08-28T20:47:52.659Z,4.28
2022-08-28T20:50:25.672Z,4.25
2022-08-28T20:52:57.343Z,3.83
2022-08-28T20:55:29.126Z,5.05
2022-08-28T20:58:00.814Z,4.68
2022-08-28T21:00:32.502Z,4.57
2022-08-28T21:03:04.251Z,4.38
2022-08-28T21:05:37.381Z,3.35
2022-08-28T21:08:12.321Z,4.25
2022-08-28T21:10:44.969Z,5.47
2022-08-28T21:13:16.656Z,5.15
2022-08-28T21:15:48.311Z,4.22
2022-08-28T21:18:20.019Z,5.25
2022-08-28T21:20:53.445Z,4.45
2022-08-28T21:23:25.112Z,5.60
2022-08-28T21:25:56.753Z,5.95
2022-08-28T21:28:28.424Z,7.30
2022-08-28T21:31:00.205Z,7.18
2022-08-28T21:33:31.922Z,4.22
2022-08-28T21:36:08.655Z,4.78
2022-08-28T21:38:40.336Z,4.70
2022-08-28T21:41:13.870Z,5.55
2022-08-28T21:43:46.051Z,5.68
2022-08-28T21:46:17.792Z,6.10
2022-08-28T21:48:49.608Z,5.45
2022-08-28T21:51:23.093Z,6.85
2022-08-28T21:53:55.134Z,8.35
2022-08-28T21:56:27.036Z,4.57
2022-08-28T21:58:58.723Z,7.47
